Dugger, Indiana
Current Conditions -  °F | °C
As of 2:55 PM on Saturday 25 Oct 2014 (Local Time) from KRSV Reporting Station
Clear Clear  
Wind Chill: 81°   Ceiling: Unl
Heat Index: 81°   Visibility: 10mi
Dew Point: 52°   Wind: 9mph
Humidity: 37%   Direction: 300°WNW
Pressure: 29.98"   Gusts: NA
Location:  39.07°N, 87.26°W
Report Text: KRSV 251855Z AUTO 30008KT 10SM CLR 27/11 A2998 RMK AO2 T02700113
Loading
Personal Weather Stations






























Interactive Weather Map
Tropical Storm Tracking
New forecast layout! Learn more

10-Day Weather Forecast

Advertisements
Track Severe Weather on mobile